Time;durP1;ratioP1;P1;durP2;ratioP2;P2;SDS_P1;SDS_P2;PMS_P1;PMS_P2;Temp;Humidity;BMP_temperature;BMP_pressure;BME280_temperature;BME280_humidity;BME280_pressure;Samples;Min_cycle;Max_cycle;Signal;HPM_P1;HPM_P2
2021/08/02 00:03:12;;;;;;;;;;;;;;;;;;;;;
2021/08/02 00:15:17;;;;;;;7.15;2.12;;;;;;;;;;4345545;32;20173;-79
2021/08/02 00:17:58;;;;;;;;;;;;;;;;;;;;;
2021/08/02 00:26:34;;;;;;;9.10;2.30;;;;;;;;;;4344074;33;20206;-78
2021/08/02 00:29:31;;;;;;;6.65;1.98;;;;;;;;;;4345082;33;20189;-78
2021/08/02 00:31:59;;;;;;;3.42;1.85;;;;;;;;;;4357215;33;20181;-79
2021/08/02 00:34:30;;;;;;;4.70;1.50;;;;;;;;;;4345958;33;20181;-79
2021/08/02 00:37:01;;;;;;;6.62;1.62;;;;;;;;;;4345789;33;20196;-79
2021/08/02 00:39:59;;;;;;;7.30;1.85;;;;;;;;;;4345454;33;20631;-79
2021/08/02 00:43:01;;;;;;;6.15;1.70;;;;;;;;;;4345566;33;20552;-79
2021/08/02 00:45:54;;;;;;;9.40;2.03;;;;;;;;;;4358963;32;20166;-79
2021/08/02 00:48:34;;;;;;;9.25;1.70;;;;;;;;;;4338958;33;20216;-79
2021/08/02 00:54:37;;;;;;;9.02;1.45;;;;;;;;;;4297801;33;20254;-79
2021/08/02 00:57:25;;;;;;;;;;;;;;;;;;;;;
2021/08/02 01:00:43;;;;;;;5.72;1.58;;;;;;;;;;4358720;33;20174;-79
2021/08/02 01:03:04;;;;;;;3.10;1.50;;;;;;;;;;4352725;33;20186;-79
2021/08/02 01:05:40;;;;;;;2.83;1.40;;;;;;;;;;4344545;33;20511;-79
2021/08/02 01:08:29;;;;;;;6.50;1.50;;;;;;;;;;4349111;32;20217;-81
2021/08/02 01:10:55;;;;;;;4.45;1.90;;;;;;;;;;4325904;32;20194;-79
2021/08/02 01:14:01;;;;;;;8.98;1.85;;;;;;;;;;4340192;32;20511;-79
2021/08/02 01:16:21;;;;;;;5.37;1.60;;;;;;;;;;4341529;33;20155;-79
2021/08/02 01:18:48;;;;;;;5.15;1.90;;;;;;;;;;4330554;33;20183;-79
2021/08/02 01:22:20;;;;;;;4.85;1.52;;;;;;;;;;4331076;33;20492;-79
2021/08/02 01:24:33;;;;;;;6.60;1.45;;;;;;;;;;4335602;32;20193;-79
2021/08/02 01:27:16;;;;;;;4.90;1.55;;;;;;;;;;4329990;32;20584;-79
2021/08/02 01:30:03;;;;;;;6.30;1.60;;;;;;;;;;4328551;33;20574;-79
2021/08/02 01:32:32;;;;;;;4.32;1.58;;;;;;;;;;4330243;32;20155;-79
2021/08/02 01:35:25;;;;;;;7.32;1.75;;;;;;;;;;4330212;33;20253;-79
2021/08/02 01:37:50;;;;;;;5.05;1.67;;;;;;;;;;4311515;33;20507;-79
2021/08/02 01:40:30;;;;;;;6.30;1.80;;;;;;;;;;4311756;33;20164;-79
2021/08/02 01:43:45;;;;;;;3.90;1.40;;;;;;;;;;4297650;33;20197;-79
2021/08/02 01:46:52;;;;;;;;;;;;;;;;;;;;;
2021/08/02 01:49:35;;;;;;;3.37;1.40;;;;;;;;;;4264657;33;20190;-79
2021/08/02 01:52:24;;;;;;;6.37;1.83;;;;;;;;;;4299858;33;20637;-79
2021/08/02 01:55:05;;;;;;;5.50;1.48;;;;;;;;;;4300827;33;20624;-79
2021/08/02 01:57:35;;;;;;;5.43;1.70;;;;;;;;;;4299976;32;20194;-79
2021/08/02 02:00:05;;;;;;;3.92;2.08;;;;;;;;;;4312216;32;20175;-79
2021/08/02 02:02:32;;;;;;;3.60;1.40;;;;;;;;;;4312628;33;20516;-79
2021/08/02 02:05:03;;;;;;;4.82;1.42;;;;;;;;;;4316390;33;20184;-79
2021/08/02 02:07:51;;;;;;;5.18;1.40;;;;;;;;;;4326313;32;20589;-79
2021/08/02 02:10:39;;;;;;;;;;;;;;;;;;;;;
2021/08/02 02:13:42;;;;;;;5.15;1.90;;;;;;;;;;4326612;33;20132;-78
2021/08/02 02:16:39;;;;;;;6.93;1.85;;;;;;;;;;4256859;33;20215;-79
2021/08/02 02:19:22;;;;;;;3.40;1.73;;;;;;;;;;4313836;33;20209;-79
2021/08/02 02:22:04;;;;;;;;;;;;;;;;;;;;;
2021/08/02 02:24:33;;;;;;;6.35;2.00;;;;;;;;;;4343307;33;20185;-79
2021/08/02 02:26:59;;;;;;;5.10;2.05;;;;;;;;;;4341867;32;20194;-79
2021/08/02 02:29:24;;;;;;;3.67;1.65;;;;;;;;;;4341597;33;20501;-79
2021/08/02 02:31:58;;;;;;;5.93;1.70;;;;;;;;;;4329553;32;20166;-79
2021/08/02 02:34:26;;;;;;;5.82;1.80;;;;;;;;;;4341758;33;20214;-79
2021/08/02 02:36:51;;;;;;;4.50;2.00;;;;;;;;;;4329730;32;20156;-79
2021/08/02 02:39:41;;;;;;;4.93;2.47;;;;;;;;;;4341328;33;20186;-79
2021/08/02 02:42:20;;;;;;;5.75;1.83;;;;;;;;;;4341577;33;20186;-80
2021/08/02 02:44:59;;;;;;;;;;;;;;;;;;;;;
2021/08/02 02:47:30;;;;;;;4.40;2.10;;;;;;;;;;4342937;33;20172;-79
2021/08/02 02:50:02;;;;;;;5.03;2.37;;;;;;;;;;4341642;33;20573;-78
2021/08/02 02:52:33;;;;;;;6.00;2.40;;;;;;;;;;4342371;33;20151;-79
2021/08/02 02:55:05;;;;;;;8.68;2.70;;;;;;;;;;4343920;33;20148;-79
2021/08/02 02:57:40;;;;;;;6.55;2.92;;;;;;;;;;4344296;33;20166;-79
2021/08/02 03:00:07;;;;;;;8.55;3.00;;;;;;;;;;4344023;33;20151;-79
2021/08/02 03:02:35;;;;;;;8.55;2.90;;;;;;;;;;4343648;33;20178;-78
2021/08/02 03:05:06;;;;;;;8.70;3.05;;;;;;;;;;4349408;33;20189;-78
2021/08/02 03:07:36;;;;;;;7.62;2.95;;;;;;;;;;4358706;32;20147;-79
2021/08/02 03:10:08;;;;;;;5.97;2.80;;;;;;;;;;4358892;32;20181;-79
2021/08/02 03:12:34;;;;;;;5.45;2.72;;;;;;;;;;4358749;32;20653;-79
2021/08/02 03:15:03;;;;;;;7.03;2.50;;;;;;;;;;4358632;32;20280;-79
2021/08/02 03:17:31;;;;;;;8.07;2.70;;;;;;;;;;4358610;32;20171;-78
2021/08/02 03:20:05;;;;;;;6.68;2.60;;;;;;;;;;4352850;32;20636;-79
2021/08/02 03:22:36;;;;;;;6.00;2.72;;;;;;;;;;4346412;33;20150;-78
2021/08/02 03:25:23;;;;;;;7.25;2.58;;;;;;;;;;4347011;33;20178;-79
2021/08/02 03:27:57;;;;;;;4.00;2.25;;;;;;;;;;4346068;33;20588;-78
2021/08/02 03:30:23;;;;;;;7.00;2.30;;;;;;;;;;4334248;33;20248;-78
2021/08/02 03:32:53;;;;;;;6.00;2.78;;;;;;;;;;4346479;33;20178;-78
2021/08/02 03:35:40;;;;;;;;;;;;;;;;;;;;;
2021/08/02 03:38:16;;;;;;;6.40;2.37;;;;;;;;;;4359798;33;20182;-78
2021/08/02 03:40:48;;;;;;;9.73;2.47;;;;;;;;;;4345705;33;20595;-78
2021/08/02 03:43:31;;;;;;;;;;;;;;;;;;;;;
2021/08/02 03:46:05;;;;;;;3.85;2.12;;;;;;;;;;4359693;33;20131;-78
2021/08/02 03:48:33;;;;;;;5.28;2.17;;;;;;;;;;4358304;32;20170;-79
2021/08/02 03:51:07;;;;;;;7.87;2.00;;;;;;;;;;4358851;33;20163;-80
2021/08/02 03:53:44;;;;;;;4.10;2.62;;;;;;;;;;4358621;32;20193;-78
2021/08/02 03:56:12;;;;;;;6.53;2.00;;;;;;;;;;4358080;32;20155;-78
2021/08/02 03:58:40;;;;;;;3.37;2.00;;;;;;;;;;4358106;32;20166;-78
2021/08/02 04:01:11;;;;;;;6.22;2.17;;;;;;;;;;4359074;32;20260;-78
2021/08/02 04:03:37;;;;;;;7.90;2.78;;;;;;;;;;4344278;32;20519;-77
2021/08/02 04:06:07;;;;;;;9.20;2.67;;;;;;;;;;4357748;32;20214;-78
2021/08/02 04:08:32;;;;;;;3.20;2.10;;;;;;;;;;4357789;32;20620;-79
2021/08/02 04:10:58;;;;;;;7.28;2.87;;;;;;;;;;4353862;32;20263;-79
2021/08/02 04:13:32;;;;;;;4.87;2.10;;;;;;;;;;4354375;32;20230;-78
2021/08/02 04:16:02;;;;;;;5.97;2.20;;;;;;;;;;4345416;33;20173;-78
2021/08/02 04:18:35;;;;;;;4.18;2.30;;;;;;;;;;4345261;32;20177;-78
2021/08/02 04:21:06;;;;;;;3.83;2.28;;;;;;;;;;4345696;33;20162;-78
2021/08/02 04:23:37;;;;;;;7.47;2.10;;;;;;;;;;4345343;33;20503;-78
2021/08/02 04:26:20;;;;;;;5.18;2.20;;;;;;;;;;4345269;33;20159;-78
2021/08/02 04:28:55;;;;;;;6.53;2.30;;;;;;;;;;4433610;32;20149;-77
2021/08/02 04:32:10;;;;;;;4.32;2.25;;;;;;;;;;4423370;32;20205;-78
2021/08/02 04:34:41;;;;;;;9.80;2.10;;;;;;;;;;4400920;32;20205;-76
2021/08/02 04:37:18;;;;;;;6.62;2.10;;;;;;;;;;4356568;33;20279;-77
2021/08/02 04:39:54;;;;;;;4.22;2.20;;;;;;;;;;4358399;33;20186;-77
2021/08/02 04:42:25;;;;;;;6.82;3.20;;;;;;;;;;4358292;33;20158;-77
2021/08/02 04:44:59;;;;;;;6.75;2.42;;;;;;;;;;4357746;33;20158;-77
2021/08/02 04:47:50;;;;;;;8.15;2.30;;;;;;;;;;4357763;33;20215;-78
2021/08/02 04:50:16;;;;;;;5.70;2.53;;;;;;;;;;4357954;32;20223;-78
2021/08/02 04:52:55;;;;;;;12.95;4.90;;;;;;;;;;4357591;33;20167;-78
2021/08/02 05:01:58;;;;;;;5.87;2.80;;;;;;;;;;4320036;32;20301;-76
2021/08/02 05:04:35;;;;;;;4.62;2.83;;;;;;;;;;4357365;32;20277;-77
2021/08/02 05:10:59;;;;;;;;;;;;;;;;;;;;;
2021/08/02 05:16:21;;;;;;;6.72;2.60;;;;;;;;;;4345903;32;20160;-78
2021/08/02 05:25:35;;;;;;;7.47;3.45;;;;;;;;;;4284511;33;20168;-79
2021/08/02 05:31:24;;;;;;;6.47;3.00;;;;;;;;;;4317662;33;20185;-79
2021/08/02 05:34:03;;;;;;;7.93;2.80;;;;;;;;;;4336993;32;20168;-79
2021/08/02 05:36:37;;;;;;;6.90;3.37;;;;;;;;;;4335116;32;20190;-78
2021/08/02 05:39:05;;;;;;;7.47;2.50;;;;;;;;;;4330381;32;20163;-78
2021/08/02 05:41:50;;;;;;;9.20;2.30;;;;;;;;;;4330357;32;20167;-79
2021/08/02 05:44:32;;;;;;;5.32;2.40;;;;;;;;;;4329871;32;20175;-79
2021/08/02 05:47:06;;;;;;;6.68;2.87;;;;;;;;;;4343616;32;20175;-80
2021/08/02 05:49:52;;;;;;;8.65;2.75;;;;;;;;;;4329819;32;20198;-79
2021/08/02 05:52:41;;;;;;;5.90;2.20;;;;;;;;;;4330688;32;20174;-79
2021/08/02 05:55:29;;;;;;;9.13;2.70;;;;;;;;;;4329897;33;20155;-79
2021/08/02 05:58:21;;;;;;;8.05;2.80;;;;;;;;;;4343334;32;20171;-80
2021/08/02 06:00:49;;;;;;;6.53;3.03;;;;;;;;;;4329216;33;20155;-80
2021/08/02 06:03:18;;;;;;;5.87;2.10;;;;;;;;;;4330157;32;20159;-79
2021/08/02 06:05:51;;;;;;;6.75;2.83;;;;;;;;;;4338846;32;20214;-77
2021/08/02 06:08:20;;;;;;;5.57;2.95;;;;;;;;;;4344547;33;20182;-78
2021/08/02 06:10:45;;;;;;;8.15;2.80;;;;;;;;;;4344333;32;20226;-79
2021/08/02 06:13:11;;;;;;;8.07;2.80;;;;;;;;;;4332134;32;20212;-77
2021/08/02 06:15:36;;;;;;;7.10;2.70;;;;;;;;;;4344368;32;20155;-80
2021/08/02 06:18:01;;;;;;;7.78;2.62;;;;;;;;;;4344194;32;20212;-79
2021/08/02 06:24:08;;;;;;;7.28;1.77;;;;;;;;;;4372442;32;20158;-81
2021/08/02 06:26:08;;;;;;;5.87;2.00;;;;;;;;;;4367035;32;20159;-80
2021/08/02 06:28:52;;;;;;;4.43;1.85;;;;;;;;;;4363895;32;20243;-80
2021/08/02 06:31:29;;;;;;;5.60;2.53;;;;;;;;;;4332249;33;20151;-80
2021/08/02 06:34:03;;;;;;;5.32;1.90;;;;;;;;;;4409602;32;20565;-82
2021/08/02 06:36:32;;;;;;;4.03;1.95;;;;;;;;;;4407479;32;20170;-80
2021/08/02 06:39:10;;;;;;;5.72;1.58;;;;;;;;;;4408832;32;20179;-79
2021/08/02 06:41:44;;;;;;;6.72;1.90;;;;;;;;;;4331075;33;20162;-80
2021/08/02 06:44:13;;;;;;;4.20;1.40;;;;;;;;;;4409131;32;20162;-78
2021/08/02 06:46:54;;;;;;;;;;;;;;;;;;;;;
2021/08/02 06:49:39;;;;;;;5.85;1.35;;;;;;;;;;4345155;33;20160;-78
2021/08/02 06:52:10;;;;;;;4.37;1.37;;;;;;;;;;4409180;32;20230;-78
2021/08/02 06:54:56;;;;;;;5.57;1.45;;;;;;;;;;4409684;32;20608;-79
2021/08/02 06:57:27;;;;;;;6.87;1.83;;;;;;;;;;4345454;32;20171;-79
2021/08/02 07:00:01;;;;;;;4.37;1.10;;;;;;;;;;4408170;32;20171;-78
2021/08/02 07:02:36;;;;;;;3.58;1.05;;;;;;;;;;4408824;32;20197;-80
2021/08/02 07:05:01;;;;;;;5.75;1.45;;;;;;;;;;4331468;33;20204;-79
2021/08/02 07:07:27;;;;;;;3.53;1.23;;;;;;;;;;4331899;33;20156;-78
2021/08/02 07:09:52;;;;;;;6.07;1.40;;;;;;;;;;4408484;32;20167;-80
2021/08/02 07:12:17;;;;;;;5.35;1.40;;;;;;;;;;4331309;33;20564;-79
2021/08/02 07:14:51;;;;;;;2.90;0.90;;;;;;;;;;4331513;33;20225;-78
2021/08/02 07:17:17;;;;;;;4.15;0.95;;;;;;;;;;4345432;33;20191;-78
2021/08/02 07:19:45;;;;;;;3.78;1.25;;;;;;;;;;4331751;33;20186;-79
2021/08/02 07:22:13;;;;;;;3.37;1.20;;;;;;;;;;4407686;32;20159;-79
2021/08/02 07:24:41;;;;;;;3.67;1.30;;;;;;;;;;4331664;33;20162;-80
2021/08/02 07:27:09;;;;;;;3.65;1.25;;;;;;;;;;4408640;32;20209;-80
2021/08/02 07:29:35;;;;;;;2.97;1.08;;;;;;;;;;4345423;32;20170;-79
2021/08/02 07:32:00;;;;;;;4.43;1.10;;;;;;;;;;4359873;33;20479;-79
2021/08/02 07:34:25;;;;;;;4.82;1.20;;;;;;;;;;4409957;32;20214;-77
2021/08/02 07:36:51;;;;;;;2.12;0.90;;;;;;;;;;4359719;33;20159;-78
2021/08/02 07:39:29;;;;;;;3.78;1.10;;;;;;;;;;4409991;32;20277;-78
2021/08/02 07:41:57;;;;;;;2.87;1.00;;;;;;;;;;4410610;32;20202;-78
2021/08/02 07:44:25;;;;;;;3.67;1.17;;;;;;;;;;4410114;32;20163;-78
2021/08/02 07:46:59;;;;;;;4.85;1.20;;;;;;;;;;4411368;32;20189;-79
2021/08/02 07:49:30;;;;;;;3.20;1.10;;;;;;;;;;4411092;32;20155;-79
2021/08/02 07:51:56;;;;;;;2.75;1.27;;;;;;;;;;4410601;32;20159;-76
2021/08/02 07:54:54;;;;;;;5.18;1.60;;;;;;;;;;4410162;32;20186;-78
2021/08/02 07:57:25;;;;;;;3.78;1.35;;;;;;;;;;4398374;32;20175;-79
2021/08/02 08:00:00;;;;;;;5.53;1.42;;;;;;;;;;4410259;32;20155;-78
2021/08/02 08:02:44;;;;;;;3.80;1.27;;;;;;;;;;4411354;32;20200;-78
2021/08/02 08:05:14;;;;;;;4.95;1.80;;;;;;;;;;4410375;32;20241;-80
2021/08/02 08:07:43;;;;;;;3.47;1.10;;;;;;;;;;4410188;32;20468;-79
2021/08/02 08:10:18;;;;;;;2.15;0.90;;;;;;;;;;4409922;32;20151;-80
2021/08/02 08:12:46;;;;;;;2.80;1.10;;;;;;;;;;4410790;32;20277;-79
2021/08/02 08:15:41;;;;;;;4.80;1.20;;;;;;;;;;4411217;32;20580;-79
2021/08/02 08:18:09;;;;;;;3.00;1.58;;;;;;;;;;4405365;32;20193;-79
2021/08/02 08:20:42;;;;;;;2.45;1.00;;;;;;;;;;4409935;32;20158;-79
2021/08/02 08:23:14;;;;;;;6.45;1.55;;;;;;;;;;4410496;32;20237;-80
2021/08/02 08:25:45;;;;;;;4.15;1.30;;;;;;;;;;4371398;32;20174;-79
2021/08/02 08:28:19;;;;;;;4.15;1.12;;;;;;;;;;4358618;32;20574;-78
2021/08/02 08:30:58;;;;;;;3.53;1.45;;;;;;;;;;4384285;32;20154;-80
2021/08/02 08:33:37;;;;;;;;;;;;;;;;;;;;;
2021/08/02 08:36:08;;;;;;;3.67;1.33;;;;;;;;;;4359576;33;20177;-78
2021/08/02 08:38:33;;;;;;;3.67;1.30;;;;;;;;;;4409842;32;20499;-79
2021/08/02 08:41:01;;;;;;;2.72;1.20;;;;;;;;;;4358836;33;20151;-81
2021/08/02 08:43:30;;;;;;;4.45;1.23;;;;;;;;;;4409561;32;20167;-79
2021/08/02 08:45:57;;;;;;;3.08;1.30;;;;;;;;;;4359089;33;20181;-79
2021/08/02 08:48:32;;;;;;;;;;;;;;;;;;;;;
2021/08/02 08:51:03;;;;;;;3.42;1.10;;;;;;;;;;4358576;32;20135;-79
2021/08/02 08:53:29;;;;;;;2.95;1.00;;;;;;;;;;4409894;32;20146;-78
2021/08/02 08:56:06;;;;;;;4.57;1.35;;;;;;;;;;4409458;32;20154;-78
2021/08/02 08:58:34;;;;;;;3.20;1.20;;;;;;;;;;4410170;32;20150;-80
2021/08/02 09:01:04;;;;;;;1.85;0.90;;;;;;;;;;4409477;32;20198;-81
2021/08/02 09:03:57;;;;;;;3.47;1.15;;;;;;;;;;4358754;33;20182;-79
2021/08/02 09:06:25;;;;;;;4.62;1.17;;;;;;;;;;4405513;32;20167;-80
2021/08/02 09:08:59;;;;;;;4.93;1.30;;;;;;;;;;4409458;32;20151;-80
2021/08/02 09:11:30;;;;;;;2.45;0.88;;;;;;;;;;4410197;32;20510;-80
2021/08/02 09:14:09;;;;;;;2.85;1.00;;;;;;;;;;4409645;32;20147;-78
2021/08/02 09:16:55;;;;;;;2.92;0.82;;;;;;;;;;4407541;32;20178;-80
2021/08/02 09:22:38;;;;;;;5.12;1.35;;;;;;;;;;4409796;32;20219;-81
2021/08/02 09:25:13;;;;;;;3.42;1.00;;;;;;;;;;4409040;32;20403;-81
2021/08/02 09:28:08;;;;;;;6.15;1.30;;;;;;;;;;4404606;32;20174;-79
2021/08/02 09:30:36;;;;;;;5.40;1.50;;;;;;;;;;4409413;32;20251;-79
2021/08/02 09:33:09;;;;;;;5.62;1.20;;;;;;;;;;4409055;32;20151;-80
2021/08/02 09:35:42;;;;;;;4.78;1.20;;;;;;;;;;4408354;32;20526;-79
2021/08/02 09:38:09;;;;;;;4.30;1.20;;;;;;;;;;4409035;32;20320;-81
2021/08/02 09:40:38;;;;;;;14.77;10.65;;;;;;;;;;4404616;32;20210;-80
2021/08/02 09:43:08;;;;;;;5.93;1.12;;;;;;;;;;4344742;32;20194;-79
2021/08/02 09:45:44;;;;;;;4.43;1.20;;;;;;;;;;4344592;33;20322;-81
2021/08/02 09:48:32;;;;;;;3.28;1.20;;;;;;;;;;4344522;33;20154;-80
2021/08/02 09:51:05;;;;;;;1.33;0.88;;;;;;;;;;4344552;33;20575;-80
2021/08/02 09:53:35;;;;;;;4.25;1.33;;;;;;;;;;4344943;33;20178;-80
2021/08/02 09:56:10;;;;;;;2.75;1.17;;;;;;;;;;4344380;32;20216;-81
2021/08/02 10:01:27;;;;;;;6.28;1.67;;;;;;;;;;4349542;33;20495;-80
2021/08/02 10:04:02;;;;;;;5.30;1.33;;;;;;;;;;4344425;33;20159;-81
2021/08/02 10:06:58;;;;;;;4.78;1.17;;;;;;;;;;4341731;33;20163;-81
2021/08/02 10:09:27;;;;;;;4.30;1.30;;;;;;;;;;4343327;32;20170;-80
2021/08/02 10:12:02;;;;;;;4.03;1.00;;;;;;;;;;4341824;33;20205;-80
2021/08/02 10:14:37;;;;;;;7.10;1.65;;;;;;;;;;4341757;32;20215;-82
2021/08/02 10:17:40;;;;;;;3.12;0.93;;;;;;;;;;4342534;33;20233;-80
2021/08/02 10:20:15;;;;;;;5.00;1.20;;;;;;;;;;4342997;33;20243;-80
2021/08/02 10:22:54;;;;;;;5.22;1.60;;;;;;;;;;4339050;33;20186;-80
2021/08/02 10:26:03;;;;;;;4.65;1.20;;;;;;;;;;4330188;33;20212;-79
2021/08/02 10:28:29;;;;;;;2.75;0.80;;;;;;;;;;4283114;33;20195;-81
2021/08/02 10:31:26;;;;;;;3.92;1.05;;;;;;;;;;4294164;33;20171;-80
2021/08/02 10:34:53;;;;;;;4.37;1.15;;;;;;;;;;4343965;32;20175;-80
2021/08/02 10:37:06;;;;;;;3.97;1.17;;;;;;;;;;4357440;32;20205;-80
2021/08/02 10:39:42;;;;;;;4.00;1.15;;;;;;;;;;4339948;33;20182;-79
2021/08/02 10:42:25;;;;;;;3.85;1.12;;;;;;;;;;4329709;32;20155;-80
2021/08/02 10:44:57;;;;;;;3.97;1.20;;;;;;;;;;4336529;32;20597;-79
2021/08/02 10:47:41;;;;;;;3.97;1.33;;;;;;;;;;4344061;32;20206;-78
2021/08/02 10:50:40;;;;;;;4.35;1.30;;;;;;;;;;4357503;33;20206;-79
2021/08/02 10:53:17;;;;;;;3.67;1.02;;;;;;;;;;4359614;32;20197;-80
2021/08/02 10:55:52;;;;;;;3.33;1.30;;;;;;;;;;4373140;32;20198;-79
2021/08/02 10:58:40;;;;;;;3.03;1.00;;;;;;;;;;4360376;32;20599;-79
2021/08/02 11:01:16;;;;;;;4.55;1.20;;;;;;;;;;4343947;32;20237;-79
2021/08/02 11:03:55;;;;;;;4.12;1.00;;;;;;;;;;4344283;32;20568;-80
2021/08/02 11:06:23;;;;;;;3.85;1.02;;;;;;;;;;4343989;32;20182;-80
2021/08/02 11:08:55;;;;;;;2.67;0.88;;;;;;;;;;4343988;32;20155;-80
2021/08/02 11:11:34;;;;;;;3.17;0.90;;;;;;;;;;4343925;32;20163;-80
2021/08/02 11:14:21;;;;;;;5.10;0.90;;;;;;;;;;4344904;32;20197;-81
2021/08/02 11:16:47;;;;;;;3.33;1.20;;;;;;;;;;4346947;32;20227;-80
2021/08/02 11:19:17;;;;;;;2.58;0.90;;;;;;;;;;4346722;32;20198;-80
2021/08/02 11:21:53;;;;;;;;;;;;;;;;;;;;;
2021/08/02 11:24:18;;;;;;;2.65;1.10;;;;;;;;;;4360456;32;20418;-81
2021/08/02 11:30:01;;;;;;;1.55;0.88;;;;;;;;;;4349826;32;20151;-80
2021/08/02 11:35:26;;;;;;;3.50;1.37;;;;;;;;;;4374272;32;20246;-79
2021/08/02 11:41:02;;;;;;;3.80;1.00;;;;;;;;;;4322966;33;20546;-80
2021/08/02 11:43:58;;;;;;;5.75;1.05;;;;;;;;;;4346126;32;20151;-80
2021/08/02 11:46:38;;;;;;;;;;;;;;;;;;;;;
2021/08/02 11:49:14;;;;;;;1.85;1.00;;;;;;;;;;4359198;33;20194;-80
2021/08/02 11:51:49;;;;;;;6.43;1.20;;;;;;;;;;4346054;33;20515;-82
2021/08/02 11:54:31;;;;;;;4.07;0.93;;;;;;;;;;4345877;33;20220;-80
2021/08/02 11:57:02;;;;;;;2.60;0.90;;;;;;;;;;4346052;33;20158;-79
2021/08/02 11:59:37;;;;;;;2.37;1.20;;;;;;;;;;4345384;33;20534;-79
2021/08/02 12:02:03;;;;;;;4.28;1.30;;;;;;;;;;4346155;33;20155;-79
2021/08/02 12:04:39;;;;;;;2.33;1.10;;;;;;;;;;4345710;33;20213;-80
2021/08/02 12:07:07;;;;;;;2.55;1.10;;;;;;;;;;4359177;32;20158;-79
2021/08/02 12:09:36;;;;;;;3.08;1.30;;;;;;;;;;4354836;32;20174;-79
2021/08/02 12:12:23;;;;;;;2.65;1.00;;;;;;;;;;4345412;33;20205;-79
2021/08/02 12:14:51;;;;;;;2.65;0.98;;;;;;;;;;4330757;32;20155;-80
2021/08/02 12:17:18;;;;;;;6.28;1.52;;;;;;;;;;4330363;32;20510;-77
2021/08/02 12:19:47;;;;;;;2.42;1.15;;;;;;;;;;4331070;32;20230;-79
2021/08/02 12:22:23;;;;;;;3.35;1.17;;;;;;;;;;4353694;32;20167;-81
2021/08/02 12:24:58;;;;;;;2.78;1.02;;;;;;;;;;4345001;33;20507;-79
2021/08/02 12:27:31;;;;;;;3.12;1.10;;;;;;;;;;4345418;33;20227;-79
2021/08/02 12:31:02;;;;;;;4.45;1.55;;;;;;;;;;4419570;32;20606;-78
2021/08/02 12:33:07;;;;;;;3.72;1.48;;;;;;;;;;4417237;32;20174;-79
2021/08/02 12:35:51;;;;;;;;;;;;;;;;;;;;;
2021/08/02 12:38:33;;;;;;;3.17;1.05;;;;;;;;;;4419311;32;20137;-80
2021/08/02 12:45:16;;;;;;;3.72;0.93;;;;;;;;;;4369817;32;20663;-80
2021/08/02 12:51:05;;;;;;;3.12;1.23;;;;;;;;;;4329721;33;20174;-79
2021/08/02 12:53:54;;;;;;;2.92;0.80;;;;;;;;;;4341213;33;20627;-80
2021/08/02 12:56:40;;;;;;;2.35;1.23;;;;;;;;;;4329410;33;20211;-80
2021/08/02 12:59:08;;;;;;;2.55;1.10;;;;;;;;;;4328421;33;20164;-80
2021/08/02 13:01:36;;;;;;;3.35;1.05;;;;;;;;;;4377836;32;20843;-79
2021/08/02 13:04:04;;;;;;;5.28;1.30;;;;;;;;;;4345177;32;20473;-81
2021/08/02 13:06:42;;;;;;;3.30;1.17;;;;;;;;;;4345055;32;20242;-79
2021/08/02 13:09:40;;;;;;;2.83;1.12;;;;;;;;;;4399287;32;20286;-79
2021/08/02 13:15:24;;;;;;;2.40;0.90;;;;;;;;;;4421066;32;20160;-80
2021/08/02 13:17:55;;;;;;;5.35;0.80;;;;;;;;;;4396401;32;20166;-80
2021/08/02 13:20:36;;;;;;;1.77;0.98;;;;;;;;;;4406379;32;20161;-81
2021/08/02 13:23:33;;;;;;;2.12;0.95;;;;;;;;;;4421207;32;20221;-80
2021/08/02 13:29:09;;;;;;;2.40;0.75;;;;;;;;;;4420806;32;20160;-79
2021/08/02 13:34:40;;;;;;;3.60;1.20;;;;;;;;;;4417391;32;20176;-79
2021/08/02 13:40:52;;;;;;;1.48;0.90;;;;;;;;;;4406260;32;20258;-79
2021/08/02 13:43:27;;;;;;;2.00;0.70;;;;;;;;;;4400070;32;20165;-80
2021/08/02 13:46:34;;;;;;;1.90;0.70;;;;;;;;;;4404279;32;20165;-80
2021/08/02 13:49:23;;;;;;;;;;;;;;;;;;;;;
2021/08/02 13:52:08;;;;;;;3.25;0.80;;;;;;;;;;4420056;32;20620;-78
2021/08/02 13:54:36;;;;;;;2.50;1.00;;;;;;;;;;4406060;32;20241;-80
2021/08/02 13:57:04;;;;;;;2.30;0.90;;;;;;;;;;4406837;32;20357;-80
2021/08/02 13:59:33;;;;;;;1.65;0.90;;;;;;;;;;4406118;32;20219;-80
2021/08/02 14:01:58;;;;;;;2.03;1.00;;;;;;;;;;4406296;32;20663;-80
2021/08/02 14:04:24;;;;;;;4.68;1.08;;;;;;;;;;4406286;32;20236;-80
2021/08/02 14:06:49;;;;;;;5.55;1.12;;;;;;;;;;4401684;32;20161;-81
2021/08/02 14:09:25;;;;;;;3.58;0.93;;;;;;;;;;4344359;33;20626;-80
2021/08/02 14:11:55;;;;;;;2.90;1.00;;;;;;;;;;4343208;33;20224;-83
2021/08/02 14:14:20;;;;;;;2.60;0.90;;;;;;;;;;4333162;32;20152;-80
2021/08/02 14:16:56;;;;;;;2.92;1.00;;;;;;;;;;4341338;32;20162;-81
2021/08/02 14:19:24;;;;;;;3.85;1.70;;;;;;;;;;4344068;32;20223;-81
2021/08/02 14:21:52;;;;;;;4.50;1.37;;;;;;;;;;4343957;32;20167;-80
2021/08/02 14:24:17;;;;;;;2.75;0.90;;;;;;;;;;4344325;33;20224;-81
2021/08/02 14:26:52;;;;;;;4.47;1.20;;;;;;;;;;4344395;33;20216;-81
2021/08/02 14:29:22;;;;;;;3.17;1.00;;;;;;;;;;4343890;33;20162;-81
2021/08/02 14:31:51;;;;;;;4.32;1.02;;;;;;;;;;4338573;32;20469;-82
2021/08/02 14:34:22;;;;;;;3.80;1.15;;;;;;;;;;4354068;33;20189;-80
2021/08/02 14:36:48;;;;;;;2.17;0.90;;;;;;;;;;4343842;32;20167;-81
2021/08/02 14:39:13;;;;;;;1.42;1.00;;;;;;;;;;4357454;33;20161;-82
2021/08/02 14:41:44;;;;;;;1.73;0.82;;;;;;;;;;4344823;33;20516;-80
2021/08/02 14:44:10;;;;;;;3.03;1.00;;;;;;;;;;4357305;32;20155;-81
2021/08/02 14:46:44;;;;;;;2.58;0.90;;;;;;;;;;4343909;32;20502;-79
2021/08/02 14:49:51;;;;;;;;;;;;;;;;;;;;;
2021/08/02 14:52:25;;;;;;;2.00;1.02;;;;;;;;;;4345525;33;20136;-81
2021/08/02 14:54:50;;;;;;;1.87;1.00;;;;;;;;;;4343204;33;20155;-80
2021/08/02 14:57:21;;;;;;;4.05;1.00;;;;;;;;;;4346519;32;20150;-80
2021/08/02 14:59:47;;;;;;;1.65;0.70;;;;;;;;;;4346387;32;20163;-80
2021/08/02 15:02:16;;;;;;;3.17;1.20;;;;;;;;;;4346715;33;20151;-82
2021/08/02 15:04:45;;;;;;;1.98;1.10;;;;;;;;;;4346028;33;20273;-81
2021/08/02 15:07:31;;;;;;;1.87;0.93;;;;;;;;;;4342824;32;20166;-82
2021/08/02 15:10:06;;;;;;;2.45;0.90;;;;;;;;;;4340079;32;20551;-80
2021/08/02 15:12:34;;;;;;;3.28;1.20;;;;;;;;;;4346081;33;20206;-81
2021/08/02 15:15:00;;;;;;;2.90;1.00;;;;;;;;;;4345940;33;20155;-81
2021/08/02 15:17:25;;;;;;;2.65;0.90;;;;;;;;;;4346196;33;20253;-80
2021/08/02 15:20:04;;;;;;;4.10;1.00;;;;;;;;;;4345563;33;20481;-81
2021/08/02 15:22:45;;;;;;;4.30;1.98;;;;;;;;;;4346353;33;20564;-79
2021/08/02 15:25:28;;;;;;;3.35;1.70;;;;;;;;;;4346088;33;20151;-79
2021/08/02 15:27:57;;;;;;;4.00;1.12;;;;;;;;;;4301608;33;20232;-83
2021/08/02 15:30:32;;;;;;;1.60;0.90;;;;;;;;;;4359564;33;20182;-80
2021/08/02 15:33:13;;;;;;;3.03;0.80;;;;;;;;;;4339209;32;20186;-81
2021/08/02 15:35:41;;;;;;;1.67;0.77;;;;;;;;;;4344706;32;20159;-82
2021/08/02 15:38:28;;;;;;;;;;;;;;;;;;;;;
2021/08/02 15:41:00;;;;;;;1.98;1.48;;;;;;;;;;4354958;33;20155;-81
2021/08/02 15:43:25;;;;;;;3.20;1.10;;;;;;;;;;4331234;32;20160;-82
2021/08/02 15:45:51;;;;;;;3.03;0.90;;;;;;;;;;4331428;33;20581;-82
2021/08/02 15:48:22;;;;;;;4.25;0.80;;;;;;;;;;4331162;33;20167;-81
2021/08/02 15:53:48;;;;;;;2.17;0.80;;;;;;;;;;4344742;33;20190;-81
2021/08/02 15:56:19;;;;;;;1.60;1.40;;;;;;;;;;4331933;33;20179;-82
2021/08/02 15:59:24;;;;;;;;;;;;;;;;;;;;;
2021/08/02 16:05:16;;;;;;;3.25;1.08;;;;;;;;;;4398049;32;20154;-82
2021/08/02 16:08:28;;;;;;;2.78;1.05;;;;;;;;;;4385534;32;20596;-84
2021/08/02 16:11:07;;;;;;;2.50;0.93;;;;;;;;;;4330665;33;20259;-82
2021/08/02 16:13:33;;;;;;;2.53;1.17;;;;;;;;;;4321843;33;20179;-82
2021/08/02 16:15:58;;;;;;;2.60;1.27;;;;;;;;;;4350129;33;20158;-84
2021/08/02 16:18:24;;;;;;;3.05;1.00;;;;;;;;;;4344835;33;20194;-82
2021/08/02 16:20:52;;;;;;;4.62;1.48;;;;;;;;;;4345355;32;20179;-79
2021/08/02 16:23:23;;;;;;;3.10;1.40;;;;;;;;;;4344719;32;20198;-81
2021/08/02 16:25:51;;;;;;;2.33;1.35;;;;;;;;;;4345798;33;20200;-83
2021/08/02 16:28:37;;;;;;;3.22;1.20;;;;;;;;;;4345695;33;20156;-82
2021/08/02 16:31:02;;;;;;;4.05;1.50;;;;;;;;;;4345588;33;20158;-83
2021/08/02 16:33:33;;;;;;;3.08;1.10;;;;;;;;;;4344883;33;20230;-83
2021/08/02 16:36:10;;;;;;;2.10;1.30;;;;;;;;;;4345498;33;20264;-84
2021/08/02 16:38:39;;;;;;;2.28;1.27;;;;;;;;;;4345687;32;20229;-83
2021/08/02 16:41:05;;;;;;;3.70;1.50;;;;;;;;;;4345062;33;20170;-83
2021/08/02 16:43:31;;;;;;;5.18;1.70;;;;;;;;;;4345420;33;20508;-83
2021/08/02 16:45:57;;;;;;;3.05;1.60;;;;;;;;;;4345193;33;20212;-84
2021/08/02 16:48:22;;;;;;;4.70;1.83;;;;;;;;;;4344519;33;20183;-83
2021/08/02 16:50:56;;;;;;;3.15;1.40;;;;;;;;;;4345226;33;20150;-84
2021/08/02 16:53:24;;;;;;;5.00;1.30;;;;;;;;;;4345023;33;20155;-83
2021/08/02 16:55:49;;;;;;;3.95;1.50;;;;;;;;;;4345123;33;20159;-82
2021/08/02 16:58:25;;;;;;;2.20;1.08;;;;;;;;;;4344251;33;20487;-83
2021/08/02 17:00:58;;;;;;;3.72;1.10;;;;;;;;;;4345633;32;20195;-82
2021/08/02 17:03:23;;;;;;;2.92;1.00;;;;;;;;;;4344790;32;20160;-83
2021/08/02 17:05:50;;;;;;;2.72;1.27;;;;;;;;;;4340880;32;20193;-83
2021/08/02 17:08:15;;;;;;;1.92;1.10;;;;;;;;;;4341320;32;20182;-82
2021/08/02 17:10:49;;;;;;;1.42;1.23;;;;;;;;;;4330264;33;20174;-81
2021/08/02 17:13:14;;;;;;;4.60;1.30;;;;;;;;;;4344818;33;20148;-81
2021/08/02 17:15:39;;;;;;;2.45;1.20;;;;;;;;;;4358494;33;20166;-81
2021/08/02 17:18:20;;;;;;;3.10;1.10;;;;;;;;;;4358234;33;20127;-82